Elbe, Washington
Current Conditions -  °F | °C
As of 4:58 PM on Wednesday 22 Oct 2014 (Local Time) from KGRF Reporting Station
Drizzle Drizzle  
Wind Chill: 56°   Ceiling: Unl
Heat Index: 56°   Visibility: 10mi
Dew Point: 55°   Wind: 12mph
Humidity: 96%   Direction: 120°ESE
Pressure: 29.59"   Gusts: NA
Location:  46.76°N, 122.2°W
Report Text: KGRF 222358Z AUTO 12010KT 10SM DZ FEW007 13/13 A2959 RMK AO2 RAE2346DZB2334 PRESFR SLP024 P0005 60038 T01320126 10140 20132 57025 $
Loading
Personal Weather Stations






























Interactive Weather Map
Tropical Storm Tracking
New forecast layout! Learn more

10-Day Weather Forecast

Advertisements
Track Severe Weather on mobile